sensor_id;sensor_type;location;lat;lon;timestamp;temperature;humidity
20068;DHT22;10194;50.824;7.134;2022-07-30T00:00:18;17.30;99.90
20068;DHT22;10194;50.824;7.134;2022-07-30T00:02:44;17.20;99.90
20068;DHT22;10194;50.824;7.134;2022-07-30T00:05:10;17.20;99.90
20068;DHT22;10194;50.824;7.134;2022-07-30T00:07:36;17.20;99.90
20068;DHT22;10194;50.824;7.134;2022-07-30T00:10:03;17.10;99.90
20068;DHT22;10194;50.824;7.134;2022-07-30T00:12:29;17.10;99.90
20068;DHT22;10194;50.824;7.134;2022-07-30T00:14:55;17.10;99.90
20068;DHT22;10194;50.824;7.134;2022-07-30T00:17:21;17.10;99.90
20068;DHT22;10194;50.824;7.134;2022-07-30T00:19:47;17.00;99.90
20068;DHT22;10194;50.824;7.134;2022-07-30T00:22:13;17.00;99.90
20068;DHT22;10194;50.824;7.134;2022-07-30T00:24:39;16.90;99.90
20068;DHT22;10194;50.824;7.134;2022-07-30T00:27:04;16.80;99.90
20068;DHT22;10194;50.824;7.134;2022-07-30T00:29:30;16.80;99.90
20068;DHT22;10194;50.824;7.134;2022-07-30T00:31:56;16.80;99.90
20068;DHT22;10194;50.824;7.134;2022-07-30T00:34:22;16.80;99.90
20068;DHT22;10194;50.824;7.134;2022-07-30T00:36:47;16.80;99.90
20068;DHT22;10194;50.824;7.134;2022-07-30T00:39:13;16.80;99.90
20068;DHT22;10194;50.824;7.134;2022-07-30T00:41:57;16.70;99.90
20068;DHT22;10194;50.824;7.134;2022-07-30T00:44:26;16.70;99.90
20068;DHT22;10194;50.824;7.134;2022-07-30T00:46:53;16.60;99.90
20068;DHT22;10194;50.824;7.134;2022-07-30T00:49:19;16.50;99.90
20068;DHT22;10194;50.824;7.134;2022-07-30T00:51:46;16.50;99.90
20068;DHT22;10194;50.824;7.134;2022-07-30T00:54:12;16.40;99.90
20068;DHT22;10194;50.824;7.134;2022-07-30T00:56:39;16.40;99.90
20068;DHT22;10194;50.824;7.134;2022-07-30T00:59:05;16.30;99.90
20068;DHT22;10194;50.824;7.134;2022-07-30T01:01:32;16.30;99.90
20068;DHT22;10194;50.824;7.134;2022-07-30T01:03:58;16.30;99.90
20068;DHT22;10194;50.824;7.134;2022-07-30T01:06:24;16.20;99.90
20068;DHT22;10194;50.824;7.134;2022-07-30T01:08:50;16.20;99.90
20068;DHT22;10194;50.824;7.134;2022-07-30T01:11:16;16.10;99.90
20068;DHT22;10194;50.824;7.134;2022-07-30T01:13:45;16.10;99.90
20068;DHT22;10194;50.824;7.134;2022-07-30T01:16:13;16.00;99.90
20068;DHT22;10194;50.824;7.134;2022-07-30T01:18:40;16.00;99.90
20068;DHT22;10194;50.824;7.134;2022-07-30T01:21:36;16.00;99.90
20068;DHT22;10194;50.824;7.134;2022-07-30T01:26:59;15.90;99.90
20068;DHT22;10194;50.824;7.134;2022-07-30T01:29:26;15.90;99.90
20068;DHT22;10194;50.824;7.134;2022-07-30T01:31:55;15.80;99.90
20068;DHT22;10194;50.824;7.134;2022-07-30T01:34:30;15.70;99.90
20068;DHT22;10194;50.824;7.134;2022-07-30T01:36:58;15.70;99.90
20068;DHT22;10194;50.824;7.134;2022-07-30T01:39:25;15.70;99.90
20068;DHT22;10194;50.824;7.134;2022-07-30T01:41:53;15.70;99.90
20068;DHT22;10194;50.824;7.134;2022-07-30T01:44:21;15.60;99.90
20068;DHT22;10194;50.824;7.134;2022-07-30T01:46:48;15.60;99.90
20068;DHT22;10194;50.824;7.134;2022-07-30T01:49:15;15.70;99.90
20068;DHT22;10194;50.824;7.134;2022-07-30T01:51:43;15.60;99.90
20068;DHT22;10194;50.824;7.134;2022-07-30T01:54:13;15.60;99.90
20068;DHT22;10194;50.824;7.134;2022-07-30T01:56:41;15.60;99.90
20068;DHT22;10194;50.824;7.134;2022-07-30T01:59:09;15.50;99.90
20068;DHT22;10194;50.824;7.134;2022-07-30T02:01:36;15.50;99.90
20068;DHT22;10194;50.824;7.134;2022-07-30T02:04:02;15.50;99.90
20068;DHT22;10194;50.824;7.134;2022-07-30T02:06:36;15.60;99.90
20068;DHT22;10194;50.824;7.134;2022-07-30T02:09:05;15.50;99.90
20068;DHT22;10194;50.824;7.134;2022-07-30T02:11:35;15.50;99.90
20068;DHT22;10194;50.824;7.134;2022-07-30T02:14:29;15.50;99.90
20068;DHT22;10194;50.824;7.134;2022-07-30T02:17:02;15.50;99.90
20068;DHT22;10194;50.824;7.134;2022-07-30T02:19:32;15.60;99.90
20068;DHT22;10194;50.824;7.134;2022-07-30T02:22:05;15.50;99.90
20068;DHT22;10194;50.824;7.134;2022-07-30T02:24:35;15.40;99.90
20068;DHT22;10194;50.824;7.134;2022-07-30T02:27:21;15.40;99.90
20068;DHT22;10194;50.824;7.134;2022-07-30T02:29:53;15.40;99.90
20068;DHT22;10194;50.824;7.134;2022-07-30T02:32:22;15.30;99.90
20068;DHT22;10194;50.824;7.134;2022-07-30T02:34:55;15.30;99.90
20068;DHT22;10194;50.824;7.134;2022-07-30T02:37:25;15.30;99.90
20068;DHT22;10194;50.824;7.134;2022-07-30T02:39:52;15.20;99.90
20068;DHT22;10194;50.824;7.134;2022-07-30T02:42:20;15.20;99.90
20068;DHT22;10194;50.824;7.134;2022-07-30T02:44:48;15.20;99.90
20068;DHT22;10194;50.824;7.134;2022-07-30T02:47:15;15.20;99.90
20068;DHT22;10194;50.824;7.134;2022-07-30T02:49:43;15.20;99.90
20068;DHT22;10194;50.824;7.134;2022-07-30T02:52:11;15.20;99.90
20068;DHT22;10194;50.824;7.134;2022-07-30T02:54:39;15.10;99.90
20068;DHT22;10194;50.824;7.134;2022-07-30T02:57:08;15.10;99.90
20068;DHT22;10194;50.824;7.134;2022-07-30T02:59:36;15.00;99.90
20068;DHT22;10194;50.824;7.134;2022-07-30T03:02:04;15.00;99.90
20068;DHT22;10194;50.824;7.134;2022-07-30T03:04:32;15.00;99.90
20068;DHT22;10194;50.824;7.134;2022-07-30T03:06:59;15.10;99.90
20068;DHT22;10194;50.824;7.134;2022-07-30T03:09:26;15.00;99.90
20068;DHT22;10194;50.824;7.134;2022-07-30T03:11:52;15.00;99.90
20068;DHT22;10194;50.824;7.134;2022-07-30T03:14:20;14.90;99.90
20068;DHT22;10194;50.824;7.134;2022-07-30T03:16:50;14.90;99.90
20068;DHT22;10194;50.824;7.134;2022-07-30T03:19:21;14.90;99.90
20068;DHT22;10194;50.824;7.134;2022-07-30T03:21:49;14.90;99.90
20068;DHT22;10194;50.824;7.134;2022-07-30T03:24:17;15.00;99.90
20068;DHT22;10194;50.824;7.134;2022-07-30T03:26:45;14.90;99.90
20068;DHT22;10194;50.824;7.134;2022-07-30T03:29:12;15.10;99.90
20068;DHT22;10194;50.824;7.134;2022-07-30T03:31:39;15.00;99.90
20068;DHT22;10194;50.824;7.134;2022-07-30T03:34:09;15.10;99.90
20068;DHT22;10194;50.824;7.134;2022-07-30T03:36:37;15.00;99.90
20068;DHT22;10194;50.824;7.134;2022-07-30T03:39:06;14.90;99.90
20068;DHT22;10194;50.824;7.134;2022-07-30T03:41:34;14.90;99.90
20068;DHT22;10194;50.824;7.134;2022-07-30T03:44:00;14.90;99.90
20068;DHT22;10194;50.824;7.134;2022-07-30T03:46:26;14.90;99.90
20068;DHT22;10194;50.824;7.134;2022-07-30T03:48:53;14.90;99.90
20068;DHT22;10194;50.824;7.134;2022-07-30T03:51:20;14.90;99.90
20068;DHT22;10194;50.824;7.134;2022-07-30T03:53:47;14.90;99.90
20068;DHT22;10194;50.824;7.134;2022-07-30T03:56:16;15.00;99.90
20068;DHT22;10194;50.824;7.134;2022-07-30T03:58:43;15.00;99.90
20068;DHT22;10194;50.824;7.134;2022-07-30T04:01:09;15.00;99.90
20068;DHT22;10194;50.824;7.134;2022-07-30T04:03:34;15.10;99.90
20068;DHT22;10194;50.824;7.134;2022-07-30T04:06:00;15.20;99.90
20068;DHT22;10194;50.824;7.134;2022-07-30T04:08:26;15.30;99.90
20068;DHT22;10194;50.824;7.134;2022-07-30T04:10:52;15.40;99.90
20068;DHT22;10194;50.824;7.134;2022-07-30T04:13:19;15.50;99.90
20068;DHT22;10194;50.824;7.134;2022-07-30T04:18:30;15.50;99.90
20068;DHT22;10194;50.824;7.134;2022-07-30T04:21:02;15.50;99.90
20068;DHT22;10194;50.824;7.134;2022-07-30T04:23:31;15.60;99.90
20068;DHT22;10194;50.824;7.134;2022-07-30T04:25:59;15.50;99.90
20068;DHT22;10194;50.824;7.134;2022-07-30T04:28:26;15.40;99.90
20068;DHT22;10194;50.824;7.134;2022-07-30T04:30:54;15.50;99.90
20068;DHT22;10194;50.824;7.134;2022-07-30T04:33:20;15.50;99.90
20068;DHT22;10194;50.824;7.134;2022-07-30T04:35:46;15.50;99.90
20068;DHT22;10194;50.824;7.134;2022-07-30T04:38:12;15.50;99.90
20068;DHT22;10194;50.824;7.134;2022-07-30T04:40:39;15.50;99.90
20068;DHT22;10194;50.824;7.134;2022-07-30T04:43:06;15.50;99.90
20068;DHT22;10194;50.824;7.134;2022-07-30T04:45:32;15.60;99.90
20068;DHT22;10194;50.824;7.134;2022-07-30T04:47:58;15.70;99.90
20068;DHT22;10194;50.824;7.134;2022-07-30T04:50:26;15.90;99.90
20068;DHT22;10194;50.824;7.134;2022-07-30T04:52:54;15.90;99.90
20068;DHT22;10194;50.824;7.134;2022-07-30T04:55:22;15.90;99.90
20068;DHT22;10194;50.824;7.134;2022-07-30T04:57:50;16.00;99.90
20068;DHT22;10194;50.824;7.134;2022-07-30T05:00:17;15.90;99.90
20068;DHT22;10194;50.824;7.134;2022-07-30T05:02:45;15.90;99.90
20068;DHT22;10194;50.824;7.134;2022-07-30T05:05:14;16.00;99.90
20068;DHT22;10194;50.824;7.134;2022-07-30T05:07:41;16.00;99.90
20068;DHT22;10194;50.824;7.134;2022-07-30T05:10:08;16.10;99.90
20068;DHT22;10194;50.824;7.134;2022-07-30T05:12:36;16.00;99.90
20068;DHT22;10194;50.824;7.134;2022-07-30T05:15:06;16.20;99.90
20068;DHT22;10194;50.824;7.134;2022-07-30T05:17:33;16.20;99.90
20068;DHT22;10194;50.824;7.134;2022-07-30T05:20:00;16.40;99.90
20068;DHT22;10194;50.824;7.134;2022-07-30T05:22:26;16.60;99.90
20068;DHT22;10194;50.824;7.134;2022-07-30T05:24:55;16.60;99.90
20068;DHT22;10194;50.824;7.134;2022-07-30T05:27:21;16.50;99.90
20068;DHT22;10194;50.824;7.134;2022-07-30T05:29:47;16.60;99.90
20068;DHT22;10194;50.824;7.134;2022-07-30T05:32:13;16.80;99.90
20068;DHT22;10194;50.824;7.134;2022-07-30T05:34:38;16.90;99.90
20068;DHT22;10194;50.824;7.134;2022-07-30T05:37:04;17.00;99.90
20068;DHT22;10194;50.824;7.134;2022-07-30T05:39:30;17.20;99.90
20068;DHT22;10194;50.824;7.134;2022-07-30T05:41:56;17.20;99.90
20068;DHT22;10194;50.824;7.134;2022-07-30T05:44:22;17.30;99.90
20068;DHT22;10194;50.824;7.134;2022-07-30T05:46:48;17.40;99.90
20068;DHT22;10194;50.824;7.134;2022-07-30T05:49:14;17.40;99.90
20068;DHT22;10194;50.824;7.134;2022-07-30T05:51:42;17.40;99.90
20068;DHT22;10194;50.824;7.134;2022-07-30T05:54:08;17.40;99.90
20068;DHT22;10194;50.824;7.134;2022-07-30T05:56:34;17.40;99.90
20068;DHT22;10194;50.824;7.134;2022-07-30T05:59:00;17.50;99.90
20068;DHT22;10194;50.824;7.134;2022-07-30T06:01:26;17.60;99.90
20068;DHT22;10194;50.824;7.134;2022-07-30T06:03:52;17.70;99.90
20068;DHT22;10194;50.824;7.134;2022-07-30T06:06:18;17.80;99.90
20068;DHT22;10194;50.824;7.134;2022-07-30T06:08:44;17.90;99.90
20068;DHT22;10194;50.824;7.134;2022-07-30T06:11:10;18.10;99.90
20068;DHT22;10194;50.824;7.134;2022-07-30T06:13:36;18.10;99.90
20068;DHT22;10194;50.824;7.134;2022-07-30T06:16:03;18.10;99.90
20068;DHT22;10194;50.824;7.134;2022-07-30T06:18:29;18.20;99.90
20068;DHT22;10194;50.824;7.134;2022-07-30T06:20:55;18.40;99.90
20068;DHT22;10194;50.824;7.134;2022-07-30T06:23:21;18.50;99.90
20068;DHT22;10194;50.824;7.134;2022-07-30T06:25:48;18.40;99.90
20068;DHT22;10194;50.824;7.134;2022-07-30T06:28:15;18.60;99.90
20068;DHT22;10194;50.824;7.134;2022-07-30T06:30:41;18.60;99.90
20068;DHT22;10194;50.824;7.134;2022-07-30T06:33:10;18.70;99.90
20068;DHT22;10194;50.824;7.134;2022-07-30T06:35:36;18.80;99.90
20068;DHT22;10194;50.824;7.134;2022-07-30T06:38:02;18.70;99.90
20068;DHT22;10194;50.824;7.134;2022-07-30T06:40:28;18.80;99.90
20068;DHT22;10194;50.824;7.134;2022-07-30T06:42:54;19.10;99.90
20068;DHT22;10194;50.824;7.134;2022-07-30T06:45:20;19.30;99.90
20068;DHT22;10194;50.824;7.134;2022-07-30T06:47:46;19.40;99.90
20068;DHT22;10194;50.824;7.134;2022-07-30T06:50:12;19.30;99.90
20068;DHT22;10194;50.824;7.134;2022-07-30T06:52:37;19.50;99.90
20068;DHT22;10194;50.824;7.134;2022-07-30T06:55:03;19.80;99.90
20068;DHT22;10194;50.824;7.134;2022-07-30T06:57:29;20.00;99.90
20068;DHT22;10194;50.824;7.134;2022-07-30T06:59:55;20.20;99.90
20068;DHT22;10194;50.824;7.134;2022-07-30T07:02:21;20.30;99.90
20068;DHT22;10194;50.824;7.134;2022-07-30T07:04:47;21.00;99.90
20068;DHT22;10194;50.824;7.134;2022-07-30T07:07:13;21.30;99.90
20068;DHT22;10194;50.824;7.134;2022-07-30T07:09:39;21.30;99.90
20068;DHT22;10194;50.824;7.134;2022-07-30T07:12:05;21.30;99.90
20068;DHT22;10194;50.824;7.134;2022-07-30T07:14:31;21.60;99.90
20068;DHT22;10194;50.824;7.134;2022-07-30T07:16:57;21.50;99.90
20068;DHT22;10194;50.824;7.134;2022-07-30T07:19:23;21.70;99.90
20068;DHT22;10194;50.824;7.134;2022-07-30T07:21:48;21.60;99.90
20068;DHT22;10194;50.824;7.134;2022-07-30T07:24:14;21.90;99.90
20068;DHT22;10194;50.824;7.134;2022-07-30T07:26:40;22.60;99.90
20068;DHT22;10194;50.824;7.134;2022-07-30T07:29:06;22.60;99.90
20068;DHT22;10194;50.824;7.134;2022-07-30T07:31:31;23.30;99.90
20068;DHT22;10194;50.824;7.134;2022-07-30T07:33:57;23.80;99.90
20068;DHT22;10194;50.824;7.134;2022-07-30T07:36:23;24.20;99.90
20068;DHT22;10194;50.824;7.134;2022-07-30T07:38:49;24.20;99.90
20068;DHT22;10194;50.824;7.134;2022-07-30T07:41:15;24.20;99.90
20068;DHT22;10194;50.824;7.134;2022-07-30T07:43:41;24.60;99.90
20068;DHT22;10194;50.824;7.134;2022-07-30T07:46:08;24.60;99.90
20068;DHT22;10194;50.824;7.134;2022-07-30T07:48:34;24.80;99.90
20068;DHT22;10194;50.824;7.134;2022-07-30T07:51:00;24.50;99.60
20068;DHT22;10194;50.824;7.134;2022-07-30T07:53:25;24.10;99.90
20068;DHT22;10194;50.824;7.134;2022-07-30T07:55:54;24.10;99.90
20068;DHT22;10194;50.824;7.134;2022-07-30T07:58:24;23.50;99.90
20068;DHT22;10194;50.824;7.134;2022-07-30T08:00:51;23.30;99.90
20068;DHT22;10194;50.824;7.134;2022-07-30T08:03:17;23.60;99.90
20068;DHT22;10194;50.824;7.134;2022-07-30T08:05:43;23.50;99.90
20068;DHT22;10194;50.824;7.134;2022-07-30T08:08:09;23.80;99.90
20068;DHT22;10194;50.824;7.134;2022-07-30T08:10:35;23.80;99.90
20068;DHT22;10194;50.824;7.134;2022-07-30T08:13:01;23.60;99.90
20068;DHT22;10194;50.824;7.134;2022-07-30T08:15:28;23.40;99.90
20068;DHT22;10194;50.824;7.134;2022-07-30T08:17:56;23.40;99.90
20068;DHT22;10194;50.824;7.134;2022-07-30T08:20:22;23.00;99.90
20068;DHT22;10194;50.824;7.134;2022-07-30T08:22:49;22.80;99.90
20068;DHT22;10194;50.824;7.134;2022-07-30T08:25:15;22.80;99.90
20068;DHT22;10194;50.824;7.134;2022-07-30T08:27:43;22.90;99.90
20068;DHT22;10194;50.824;7.134;2022-07-30T08:30:10;22.40;99.90
20068;DHT22;10194;50.824;7.134;2022-07-30T08:32:36;22.60;99.90
20068;DHT22;10194;50.824;7.134;2022-07-30T08:35:03;23.10;99.90
20068;DHT22;10194;50.824;7.134;2022-07-30T08:37:30;23.30;99.90
20068;DHT22;10194;50.824;7.134;2022-07-30T08:39:55;23.20;99.90
20068;DHT22;10194;50.824;7.134;2022-07-30T08:42:22;23.30;99.90
20068;DHT22;10194;50.824;7.134;2022-07-30T08:44:49;23.60;99.90
20068;DHT22;10194;50.824;7.134;2022-07-30T08:47:17;23.30;99.90
20068;DHT22;10194;50.824;7.134;2022-07-30T08:49:45;23.50;99.90
20068;DHT22;10194;50.824;7.134;2022-07-30T08:52:12;23.50;99.90
20068;DHT22;10194;50.824;7.134;2022-07-30T08:54:38;23.60;99.90
20068;DHT22;10194;50.824;7.134;2022-07-30T08:57:05;23.80;99.90
20068;DHT22;10194;50.824;7.134;2022-07-30T08:59:31;23.60;99.90
20068;DHT22;10194;50.824;7.134;2022-07-30T09:01:58;23.40;99.90
20068;DHT22;10194;50.824;7.134;2022-07-30T09:04:23;23.50;99.90
20068;DHT22;10194;50.824;7.134;2022-07-30T09:06:49;23.60;99.90
20068;DHT22;10194;50.824;7.134;2022-07-30T09:09:15;23.80;99.90
20068;DHT22;10194;50.824;7.134;2022-07-30T09:11:41;23.70;99.70
20068;DHT22;10194;50.824;7.134;2022-07-30T09:14:09;24.00;99.90
20068;DHT22;10194;50.824;7.134;2022-07-30T09:16:36;23.70;99.90
20068;DHT22;10194;50.824;7.134;2022-07-30T09:19:16;24.10;99.30
20068;DHT22;10194;50.824;7.134;2022-07-30T09:21:54;24.20;98.20
20068;DHT22;10194;50.824;7.134;2022-07-30T09:24:24;24.50;99.80
20068;DHT22;10194;50.824;7.134;2022-07-30T09:26:59;24.60;97.60
20068;DHT22;10194;50.824;7.134;2022-07-30T09:29:28;24.10;98.20
20068;DHT22;10194;50.824;7.134;2022-07-30T09:32:05;23.90;97.80
20068;DHT22;10194;50.824;7.134;2022-07-30T09:34:36;24.20;97.70
20068;DHT22;10194;50.824;7.134;2022-07-30T09:37:15;24.50;97.40
20068;DHT22;10194;50.824;7.134;2022-07-30T09:39:42;24.50;97.10
20068;DHT22;10194;50.824;7.134;2022-07-30T09:42:22;23.80;96.20
20068;DHT22;10194;50.824;7.134;2022-07-30T09:45:05;24.20;98.40
20068;DHT22;10194;50.824;7.134;2022-07-30T09:47:33;24.20;96.90
20068;DHT22;10194;50.824;7.134;2022-07-30T09:50:08;24.50;96.50
20068;DHT22;10194;50.824;7.134;2022-07-30T09:52:41;24.80;96.40
20068;DHT22;10194;50.824;7.134;2022-07-30T09:55:08;24.90;96.70
20068;DHT22;10194;50.824;7.134;2022-07-30T09:57:34;25.20;96.30
20068;DHT22;10194;50.824;7.134;2022-07-30T10:00:18;25.20;95.00
20068;DHT22;10194;50.824;7.134;2022-07-30T10:02:47;24.70;94.90
20068;DHT22;10194;50.824;7.134;2022-07-30T10:05:15;24.10;95.60
20068;DHT22;10194;50.824;7.134;2022-07-30T10:07:57;24.50;96.80
20068;DHT22;10194;50.824;7.134;2022-07-30T10:10:29;24.50;95.20
20068;DHT22;10194;50.824;7.134;2022-07-30T10:13:02;24.20;95.70
20068;DHT22;10194;50.824;7.134;2022-07-30T10:15:33;24.40;96.70
20068;DHT22;10194;50.824;7.134;2022-07-30T10:18:01;24.90;96.30
20068;DHT22;10194;50.824;7.134;2022-07-30T10:20:29;25.40;95.70
20068;DHT22;10194;50.824;7.134;2022-07-30T10:22:55;25.80;95.20
20068;DHT22;10194;50.824;7.134;2022-07-30T10:25:23;26.10;93.50
20068;DHT22;10194;50.824;7.134;2022-07-30T10:27:50;25.90;93.70
20068;DHT22;10194;50.824;7.134;2022-07-30T10:30:17;26.00;93.10
20068;DHT22;10194;50.824;7.134;2022-07-30T10:32:44;26.00;93.30
20068;DHT22;10194;50.824;7.134;2022-07-30T10:35:11;26.00;93.30
20068;DHT22;10194;50.824;7.134;2022-07-30T10:37:43;25.60;93.40
20068;DHT22;10194;50.824;7.134;2022-07-30T10:40:33;25.10;94.00
20068;DHT22;10194;50.824;7.134;2022-07-30T10:46:25;25.80;92.80
20068;DHT22;10194;50.824;7.134;2022-07-30T10:48:54;26.10;93.00
20068;DHT22;10194;50.824;7.134;2022-07-30T10:51:21;26.00;91.90
20068;DHT22;10194;50.824;7.134;2022-07-30T10:57:10;24.60;93.20
20068;DHT22;10194;50.824;7.134;2022-07-30T11:02:24;24.40;94.00
20068;DHT22;10194;50.824;7.134;2022-07-30T11:07:44;24.80;92.30
20068;DHT22;10194;50.824;7.134;2022-07-30T11:10:33;25.10;90.50
20068;DHT22;10194;50.824;7.134;2022-07-30T11:13:03;25.20;91.80
20068;DHT22;10194;50.824;7.134;2022-07-30T11:18:25;25.00;90.90
20068;DHT22;10194;50.824;7.134;2022-07-30T11:21:18;25.20;86.80
20068;DHT22;10194;50.824;7.134;2022-07-30T11:23:45;25.10;83.00
20068;DHT22;10194;50.824;7.134;2022-07-30T11:29:07;25.10;80.50
20068;DHT22;10194;50.824;7.134;2022-07-30T11:32:25;25.20;78.40
20068;DHT22;10194;50.824;7.134;2022-07-30T11:35:22;25.40;80.00
20068;DHT22;10194;50.824;7.134;2022-07-30T11:38:07;25.50;80.10
20068;DHT22;10194;50.824;7.134;2022-07-30T11:43:48;25.20;82.10
20068;DHT22;10194;50.824;7.134;2022-07-30T11:46:49;25.40;82.20
20068;DHT22;10194;50.824;7.134;2022-07-30T11:49:16;25.40;79.70
20068;DHT22;10194;50.824;7.134;2022-07-30T11:51:47;25.40;77.20
20068;DHT22;10194;50.824;7.134;2022-07-30T11:54:14;25.00;77.70
20068;DHT22;10194;50.824;7.134;2022-07-30T11:56:50;25.10;80.00
20068;DHT22;10194;50.824;7.134;2022-07-30T11:59:17;25.20;80.10
20068;DHT22;10194;50.824;7.134;2022-07-30T12:01:51;25.10;80.20
20068;DHT22;10194;50.824;7.134;2022-07-30T12:04:20;25.30;82.60
20068;DHT22;10194;50.824;7.134;2022-07-30T12:06:47;25.10;82.50
20068;DHT22;10194;50.824;7.134;2022-07-30T12:09:25;25.10;82.50
20068;DHT22;10194;50.824;7.134;2022-07-30T12:11:55;25.10;80.90
20068;DHT22;10194;50.824;7.134;2022-07-30T12:14:21;25.30;76.30
20068;DHT22;10194;50.824;7.134;2022-07-30T12:16:52;25.20;76.10
20068;DHT22;10194;50.824;7.134;2022-07-30T12:19:19;25.10;75.00
20068;DHT22;10194;50.824;7.134;2022-07-30T12:21:45;24.80;77.00
20068;DHT22;10194;50.824;7.134;2022-07-30T12:24:11;24.60;77.40
20068;DHT22;10194;50.824;7.134;2022-07-30T12:26:38;24.90;78.20
20068;DHT22;10194;50.824;7.134;2022-07-30T12:29:08;25.00;77.10
20068;DHT22;10194;50.824;7.134;2022-07-30T12:31:40;24.70;77.00
20068;DHT22;10194;50.824;7.134;2022-07-30T12:34:24;24.70;79.80
20068;DHT22;10194;50.824;7.134;2022-07-30T12:36:51;25.00;78.60
20068;DHT22;10194;50.824;7.134;2022-07-30T12:39:22;25.30;75.80
20068;DHT22;10194;50.824;7.134;2022-07-30T12:41:51;25.50;74.90
20068;DHT22;10194;50.824;7.134;2022-07-30T12:44:40;25.60;74.10
20068;DHT22;10194;50.824;7.134;2022-07-30T12:47:23;25.60;74.20
20068;DHT22;10194;50.824;7.134;2022-07-30T12:49:55;25.60;75.60
20068;DHT22;10194;50.824;7.134;2022-07-30T12:52:32;25.60;75.90
20068;DHT22;10194;50.824;7.134;2022-07-30T12:55:01;25.50;75.90
20068;DHT22;10194;50.824;7.134;2022-07-30T12:57:28;25.50;75.40
20068;DHT22;10194;50.824;7.134;2022-07-30T13:00:16;25.50;71.80
20068;DHT22;10194;50.824;7.134;2022-07-30T13:02:42;25.60;73.20
20068;DHT22;10194;50.824;7.134;2022-07-30T13:05:08;25.70;73.50
20068;DHT22;10194;50.824;7.134;2022-07-30T13:07:50;25.60;74.00
20068;DHT22;10194;50.824;7.134;2022-07-30T13:10:23;25.50;76.00
20068;DHT22;10194;50.824;7.134;2022-07-30T13:12:50;25.40;75.40
20068;DHT22;10194;50.824;7.134;2022-07-30T13:15:20;25.70;74.00
20068;DHT22;10194;50.824;7.134;2022-07-30T13:17:47;25.70;72.90
20068;DHT22;10194;50.824;7.134;2022-07-30T13:20:17;25.70;72.80
20068;DHT22;10194;50.824;7.134;2022-07-30T13:22:43;25.30;72.20
20068;DHT22;10194;50.824;7.134;2022-07-30T13:25:10;25.40;71.90
20068;DHT22;10194;50.824;7.134;2022-07-30T13:27:37;25.50;73.50
20068;DHT22;10194;50.824;7.134;2022-07-30T13:30:04;25.70;72.90
20068;DHT22;10194;50.824;7.134;2022-07-30T13:32:30;25.80;73.10
20068;DHT22;10194;50.824;7.134;2022-07-30T13:34:56;25.50;71.70
20068;DHT22;10194;50.824;7.134;2022-07-30T13:37:22;25.30;72.90
20068;DHT22;10194;50.824;7.134;2022-07-30T13:39:48;25.30;72.90
20068;DHT22;10194;50.824;7.134;2022-07-30T13:42:14;25.30;73.90
20068;DHT22;10194;50.824;7.134;2022-07-30T13:44:39;25.30;73.60
20068;DHT22;10194;50.824;7.134;2022-07-30T13:47:05;25.40;75.30
20068;DHT22;10194;50.824;7.134;2022-07-30T13:49:34;25.50;74.50
20068;DHT22;10194;50.824;7.134;2022-07-30T13:52:08;25.50;74.40
20068;DHT22;10194;50.824;7.134;2022-07-30T13:54:34;25.40;74.60
20068;DHT22;10194;50.824;7.134;2022-07-30T13:57:01;25.30;73.90
20068;DHT22;10194;50.824;7.134;2022-07-30T13:59:27;25.30;73.80
20068;DHT22;10194;50.824;7.134;2022-07-30T14:01:55;25.50;74.40
20068;DHT22;10194;50.824;7.134;2022-07-30T14:04:21;25.60;74.30
20068;DHT22;10194;50.824;7.134;2022-07-30T14:06:47;25.50;73.70
20068;DHT22;10194;50.824;7.134;2022-07-30T14:09:13;25.60;75.50
20068;DHT22;10194;50.824;7.134;2022-07-30T14:11:38;25.80;75.20
20068;DHT22;10194;50.824;7.134;2022-07-30T14:14:04;26.00;72.60
20068;DHT22;10194;50.824;7.134;2022-07-30T14:16:30;26.00;72.20
20068;DHT22;10194;50.824;7.134;2022-07-30T14:18:56;25.90;72.60
20068;DHT22;10194;50.824;7.134;2022-07-30T14:21:22;25.80;72.50
20068;DHT22;10194;50.824;7.134;2022-07-30T14:23:47;25.90;73.40
20068;DHT22;10194;50.824;7.134;2022-07-30T14:26:13;25.70;72.60
20068;DHT22;10194;50.824;7.134;2022-07-30T14:28:40;25.80;74.20
20068;DHT22;10194;50.824;7.134;2022-07-30T14:31:06;25.90;75.40
20068;DHT22;10194;50.824;7.134;2022-07-30T14:33:32;26.00;73.70
20068;DHT22;10194;50.824;7.134;2022-07-30T14:35:58;26.10;71.80
20068;DHT22;10194;50.824;7.134;2022-07-30T14:38:26;26.10;72.50
20068;DHT22;10194;50.824;7.134;2022-07-30T14:40:55;26.20;73.20
20068;DHT22;10194;50.824;7.134;2022-07-30T14:43:21;26.20;72.60
20068;DHT22;10194;50.824;7.134;2022-07-30T14:45:49;25.80;73.50
20068;DHT22;10194;50.824;7.134;2022-07-30T14:48:17;25.50;75.00
20068;DHT22;10194;50.824;7.134;2022-07-30T14:50:43;25.50;75.00
20068;DHT22;10194;50.824;7.134;2022-07-30T14:53:09;25.70;76.00
20068;DHT22;10194;50.824;7.134;2022-07-30T14:55:35;25.90;76.40
20068;DHT22;10194;50.824;7.134;2022-07-30T14:58:01;26.00;77.90
20068;DHT22;10194;50.824;7.134;2022-07-30T15:00:29;26.00;74.20
20068;DHT22;10194;50.824;7.134;2022-07-30T15:02:56;25.80;73.30
20068;DHT22;10194;50.824;7.134;2022-07-30T15:05:24;25.70;74.00
20068;DHT22;10194;50.824;7.134;2022-07-30T15:07:50;25.60;74.40
20068;DHT22;10194;50.824;7.134;2022-07-30T15:10:17;25.60;74.30
20068;DHT22;10194;50.824;7.134;2022-07-30T15:12:45;25.90;73.90
20068;DHT22;10194;50.824;7.134;2022-07-30T15:15:11;26.00;72.90
20068;DHT22;10194;50.824;7.134;2022-07-30T15:17:37;25.90;71.40
20068;DHT22;10194;50.824;7.134;2022-07-30T15:20:05;25.80;73.30
20068;DHT22;10194;50.824;7.134;2022-07-30T15:22:34;25.60;73.40
20068;DHT22;10194;50.824;7.134;2022-07-30T15:25:01;25.50;74.00
20068;DHT22;10194;50.824;7.134;2022-07-30T15:27:27;25.40;73.90
20068;DHT22;10194;50.824;7.134;2022-07-30T15:29:53;25.40;74.10
20068;DHT22;10194;50.824;7.134;2022-07-30T15:32:22;25.50;74.10
20068;DHT22;10194;50.824;7.134;2022-07-30T15:34:52;25.60;73.50
20068;DHT22;10194;50.824;7.134;2022-07-30T15:37:18;25.50;75.60
20068;DHT22;10194;50.824;7.134;2022-07-30T15:39:44;25.70;73.40
20068;DHT22;10194;50.824;7.134;2022-07-30T15:42:10;25.80;74.20
20068;DHT22;10194;50.824;7.134;2022-07-30T15:44:39;25.70;73.70
20068;DHT22;10194;50.824;7.134;2022-07-30T15:47:05;25.50;74.00
20068;DHT22;10194;50.824;7.134;2022-07-30T15:49:31;25.40;74.00
20068;DHT22;10194;50.824;7.134;2022-07-30T15:52:01;25.40;76.00
20068;DHT22;10194;50.824;7.134;2022-07-30T15:54:27;25.60;75.30
20068;DHT22;10194;50.824;7.134;2022-07-30T15:56:53;25.70;74.30
20068;DHT22;10194;50.824;7.134;2022-07-30T15:59:20;25.80;74.20
20068;DHT22;10194;50.824;7.134;2022-07-30T16:01:46;25.80;73.20
20068;DHT22;10194;50.824;7.134;2022-07-30T16:04:13;25.80;72.70